SKSP/ADZ METAR and TAF weather

Enter ICAO airport designator
Station Type Date Time Source
SKSP METAR 2022/12/04 04:00 UTC NOAA

SKSP 040400Z 06011KT 9999 SCT018 28/23 Q1013 RMK A2994


Station Type Date Time Source
SKSP Decoded METAR 2022/12/04 04:00 UTC NOAA

San Andres Isla / Sesquicentenario, Colombia (SKSP) 12-35N 081-43W 6M
Dec 03, 2022 - 11:00 PM EST / 2022.12.04 0400 UTC
Wind: from the ENE (060 degrees) at 13 MPH (11 KT):0
Visibility: greater than 7 mile(s):0
Sky conditions: partly cloudy
Temperature: 82 F (28 C)
Dew Point: 73 F (23 C)
Relative Humidity: 74%
Pressure (altimeter): 29.91 in. Hg (1013 hPa)
ob: SKSP 040400Z 06011KT 9999 SCT018 28/23 Q1013 RMK A2994
cycle: 4

Station Type Date Time Source
SKSP TAF 2022/12/03 18:51 UTC NOAA

TAF SKSP 031630Z 0318/0418 05010KT 9999 FEW016
TEMPO 0321/0401 DZ SCT015TCU TX31/0318Z TN25/0410Z

Example: see airport list